sensor_id;sensor_type;location;lat;lon;timestamp;P1;durP1;ratioP1;P2;durP2;ratioP2
69970;SDS011;57301;50.328;8.542;2022-10-14T00:01:55;11.90;;;6.53;;
69970;SDS011;57301;50.328;8.542;2022-10-14T00:04:22;9.57;;;5.40;;
69970;SDS011;57301;50.328;8.542;2022-10-14T00:06:49;10.07;;;5.38;;
69970;SDS011;57301;50.328;8.542;2022-10-14T00:09:15;8.63;;;5.53;;
69970;SDS011;57301;50.328;8.542;2022-10-14T00:11:42;8.55;;;5.50;;
69970;SDS011;57301;50.328;8.542;2022-10-14T00:14:12;7.90;;;4.90;;
69970;SDS011;57301;50.328;8.542;2022-10-14T00:16:41;9.50;;;5.20;;
69970;SDS011;57301;50.328;8.542;2022-10-14T00:19:09;10.02;;;4.90;;
69970;SDS011;57301;50.328;8.542;2022-10-14T00:21:38;10.27;;;4.95;;
69970;SDS011;57301;50.328;8.542;2022-10-14T00:24:06;7.90;;;4.40;;
69970;SDS011;57301;50.328;8.542;2022-10-14T00:26:34;7.25;;;4.85;;
69970;SDS011;57301;50.328;8.542;2022-10-14T00:29:03;8.33;;;4.93;;
69970;SDS011;57301;50.328;8.542;2022-10-14T00:31:31;7.80;;;4.78;;
69970;SDS011;57301;50.328;8.542;2022-10-14T00:33:57;7.28;;;5.30;;
69970;SDS011;57301;50.328;8.542;2022-10-14T00:36:24;6.95;;;4.88;;
69970;SDS011;57301;50.328;8.542;2022-10-14T00:38:51;6.90;;;4.95;;
69970;SDS011;57301;50.328;8.542;2022-10-14T00:41:24;10.40;;;4.90;;
69970;SDS011;57301;50.328;8.542;2022-10-14T00:46:24;11.70;;;5.38;;
69970;SDS011;57301;50.328;8.542;2022-10-14T00:48:53;10.10;;;5.45;;
69970;SDS011;57301;50.328;8.542;2022-10-14T00:51:21;9.52;;;5.15;;
69970;SDS011;57301;50.328;8.542;2022-10-14T00:53:48;7.17;;;5.10;;
69970;SDS011;57301;50.328;8.542;2022-10-14T00:56:15;8.32;;;4.40;;
69970;SDS011;57301;50.328;8.542;2022-10-14T00:58:44;8.05;;;4.47;;
69970;SDS011;57301;50.328;8.542;2022-10-14T01:01:11;8.65;;;4.82;;
69970;SDS011;57301;50.328;8.542;2022-10-14T01:03:38;8.52;;;4.90;;
69970;SDS011;57301;50.328;8.542;2022-10-14T01:06:12;8.23;;;5.17;;
69970;SDS011;57301;50.328;8.542;2022-10-14T01:09:12;7.05;;;4.53;;
69970;SDS011;57301;50.328;8.542;2022-10-14T01:23:17;9.77;;;5.68;;
69970;SDS011;57301;50.328;8.542;2022-10-14T01:32:51;7.32;;;5.07;;
69970;SDS011;57301;50.328;8.542;2022-10-14T01:35:32;9.60;;;5.30;;
69970;SDS011;57301;50.328;8.542;2022-10-14T01:38:10;7.60;;;5.25;;
69970;SDS011;57301;50.328;8.542;2022-10-14T01:40:45;9.13;;;5.07;;
69970;SDS011;57301;50.328;8.542;2022-10-14T01:43:18;10.52;;;5.20;;
69970;SDS011;57301;50.328;8.542;2022-10-14T01:45:48;10.32;;;6.13;;
69970;SDS011;57301;50.328;8.542;2022-10-14T01:48:16;9.90;;;5.10;;
69970;SDS011;57301;50.328;8.542;2022-10-14T01:50:46;7.88;;;4.95;;
69970;SDS011;57301;50.328;8.542;2022-10-14T01:53:20;7.00;;;5.13;;
69970;SDS011;57301;50.328;8.542;2022-10-14T01:55:51;9.50;;;5.07;;
69970;SDS011;57301;50.328;8.542;2022-10-14T01:58:21;9.05;;;4.95;;
69970;SDS011;57301;50.328;8.542;2022-10-14T02:00:51;8.87;;;5.07;;
69970;SDS011;57301;50.328;8.542;2022-10-14T02:03:18;9.45;;;5.40;;
69970;SDS011;57301;50.328;8.542;2022-10-14T02:05:50;11.07;;;5.03;;
69970;SDS011;57301;50.328;8.542;2022-10-14T02:11:17;7.47;;;4.35;;
69970;SDS011;57301;50.328;8.542;2022-10-14T02:13:52;7.57;;;4.00;;
69970;SDS011;57301;50.328;8.542;2022-10-14T02:19:08;6.63;;;4.40;;
69970;SDS011;57301;50.328;8.542;2022-10-14T02:21:58;7.18;;;4.40;;
69970;SDS011;57301;50.328;8.542;2022-10-14T02:24:30;7.22;;;4.32;;
69970;SDS011;57301;50.328;8.542;2022-10-14T02:27:01;5.90;;;3.90;;
69970;SDS011;57301;50.328;8.542;2022-10-14T02:29:31;5.53;;;3.95;;
69970;SDS011;57301;50.328;8.542;2022-10-14T02:31:59;6.68;;;3.92;;
69970;SDS011;57301;50.328;8.542;2022-10-14T02:34:29;4.97;;;3.47;;
69970;SDS011;57301;50.328;8.542;2022-10-14T02:36:56;5.35;;;3.03;;
69970;SDS011;57301;50.328;8.542;2022-10-14T02:39:26;5.93;;;3.20;;
69970;SDS011;57301;50.328;8.542;2022-10-14T02:41:55;5.20;;;3.40;;
69970;SDS011;57301;50.328;8.542;2022-10-14T02:44:22;6.75;;;3.75;;
69970;SDS011;57301;50.328;8.542;2022-10-14T02:46:49;12.55;;;7.95;;
69970;SDS011;57301;50.328;8.542;2022-10-14T02:49:15;8.18;;;4.22;;
69970;SDS011;57301;50.328;8.542;2022-10-14T02:51:43;7.87;;;4.30;;
69970;SDS011;57301;50.328;8.542;2022-10-14T02:54:09;5.05;;;3.22;;
69970;SDS011;57301;50.328;8.542;2022-10-14T02:56:35;6.47;;;4.15;;
69970;SDS011;57301;50.328;8.542;2022-10-14T02:59:02;6.10;;;3.70;;
69970;SDS011;57301;50.328;8.542;2022-10-14T03:01:29;5.70;;;3.83;;
69970;SDS011;57301;50.328;8.542;2022-10-14T03:04:02;6.97;;;3.63;;
69970;SDS011;57301;50.328;8.542;2022-10-14T03:06:28;7.47;;;4.05;;
69970;SDS011;57301;50.328;8.542;2022-10-14T03:08:55;6.40;;;4.03;;
69970;SDS011;57301;50.328;8.542;2022-10-14T03:11:21;7.20;;;3.90;;
69970;SDS011;57301;50.328;8.542;2022-10-14T03:13:48;6.22;;;4.00;;
69970;SDS011;57301;50.328;8.542;2022-10-14T03:16:14;7.73;;;4.40;;
69970;SDS011;57301;50.328;8.542;2022-10-14T03:18:40;6.10;;;4.20;;
69970;SDS011;57301;50.328;8.542;2022-10-14T03:21:07;6.72;;;4.63;;
69970;SDS011;57301;50.328;8.542;2022-10-14T03:23:33;6.05;;;3.90;;
69970;SDS011;57301;50.328;8.542;2022-10-14T03:26:00;7.32;;;5.03;;
69970;SDS011;57301;50.328;8.542;2022-10-14T03:28:26;7.30;;;5.17;;
69970;SDS011;57301;50.328;8.542;2022-10-14T03:30:53;9.32;;;5.90;;
69970;SDS011;57301;50.328;8.542;2022-10-14T03:33:19;12.93;;;7.95;;
69970;SDS011;57301;50.328;8.542;2022-10-14T03:35:49;18.23;;;12.15;;
69970;SDS011;57301;50.328;8.542;2022-10-14T03:38:16;8.88;;;6.07;;
69970;SDS011;57301;50.328;8.542;2022-10-14T03:40:42;10.03;;;6.87;;
69970;SDS011;57301;50.328;8.542;2022-10-14T03:43:09;12.57;;;6.85;;
69970;SDS011;57301;50.328;8.542;2022-10-14T03:45:35;10.73;;;7.38;;
69970;SDS011;57301;50.328;8.542;2022-10-14T03:48:02;12.40;;;8.82;;
69970;SDS011;57301;50.328;8.542;2022-10-14T03:50:28;12.73;;;8.25;;
69970;SDS011;57301;50.328;8.542;2022-10-14T03:52:55;14.53;;;9.07;;
69970;SDS011;57301;50.328;8.542;2022-10-14T03:55:21;12.13;;;7.93;;
69970;SDS011;57301;50.328;8.542;2022-10-14T03:57:48;13.93;;;8.45;;
69970;SDS011;57301;50.328;8.542;2022-10-14T04:00:14;14.88;;;9.50;;
69970;SDS011;57301;50.328;8.542;2022-10-14T04:02:41;14.57;;;9.57;;
69970;SDS011;57301;50.328;8.542;2022-10-14T04:05:08;13.63;;;9.27;;
69970;SDS011;57301;50.328;8.542;2022-10-14T04:07:35;16.90;;;9.55;;
69970;SDS011;57301;50.328;8.542;2022-10-14T04:10:02;15.77;;;9.95;;
69970;SDS011;57301;50.328;8.542;2022-10-14T04:12:29;16.35;;;11.20;;
69970;SDS011;57301;50.328;8.542;2022-10-14T04:14:55;19.50;;;10.98;;
69970;SDS011;57301;50.328;8.542;2022-10-14T04:17:23;17.20;;;11.00;;
69970;SDS011;57301;50.328;8.542;2022-10-14T04:19:50;18.42;;;11.95;;
69970;SDS011;57301;50.328;8.542;2022-10-14T04:22:17;18.80;;;11.50;;
69970;SDS011;57301;50.328;8.542;2022-10-14T04:24:45;18.23;;;11.02;;
69970;SDS011;57301;50.328;8.542;2022-10-14T04:27:11;17.35;;;11.00;;
69970;SDS011;57301;50.328;8.542;2022-10-14T04:29:37;16.43;;;10.40;;
69970;SDS011;57301;50.328;8.542;2022-10-14T04:32:04;18.73;;;9.77;;
69970;SDS011;57301;50.328;8.542;2022-10-14T04:34:30;16.45;;;10.27;;
69970;SDS011;57301;50.328;8.542;2022-10-14T04:36:57;16.85;;;10.90;;
69970;SDS011;57301;50.328;8.542;2022-10-14T04:39:23;16.90;;;10.48;;
69970;SDS011;57301;50.328;8.542;2022-10-14T04:41:50;16.37;;;10.03;;
69970;SDS011;57301;50.328;8.542;2022-10-14T04:44:16;15.48;;;9.75;;
69970;SDS011;57301;50.328;8.542;2022-10-14T04:46:43;15.43;;;9.85;;
69970;SDS011;57301;50.328;8.542;2022-10-14T04:49:09;14.55;;;10.23;;
69970;SDS011;57301;50.328;8.542;2022-10-14T04:51:37;15.18;;;9.35;;
69970;SDS011;57301;50.328;8.542;2022-10-14T04:54:04;23.57;;;14.00;;
69970;SDS011;57301;50.328;8.542;2022-10-14T04:56:31;17.38;;;10.60;;
69970;SDS011;57301;50.328;8.542;2022-10-14T04:58:57;17.70;;;10.02;;
69970;SDS011;57301;50.328;8.542;2022-10-14T05:01:24;16.05;;;9.95;;
69970;SDS011;57301;50.328;8.542;2022-10-14T05:03:56;14.15;;;9.63;;
69970;SDS011;57301;50.328;8.542;2022-10-14T05:06:23;14.83;;;9.20;;
69970;SDS011;57301;50.328;8.542;2022-10-14T05:08:49;13.23;;;9.18;;
69970;SDS011;57301;50.328;8.542;2022-10-14T05:11:16;14.75;;;8.95;;
69970;SDS011;57301;50.328;8.542;2022-10-14T05:13:42;15.70;;;9.35;;
69970;SDS011;57301;50.328;8.542;2022-10-14T05:16:09;20.75;;;13.38;;
69970;SDS011;57301;50.328;8.542;2022-10-14T05:18:35;16.33;;;9.63;;
69970;SDS011;57301;50.328;8.542;2022-10-14T05:21:02;15.23;;;8.88;;
69970;SDS011;57301;50.328;8.542;2022-10-14T05:23:29;16.92;;;9.38;;
69970;SDS011;57301;50.328;8.542;2022-10-14T05:25:55;22.65;;;10.38;;
69970;SDS011;57301;50.328;8.542;2022-10-14T05:28:21;21.85;;;10.90;;
69970;SDS011;57301;50.328;8.542;2022-10-14T05:30:48;26.40;;;12.80;;
69970;SDS011;57301;50.328;8.542;2022-10-14T05:33:15;24.05;;;13.05;;
69970;SDS011;57301;50.328;8.542;2022-10-14T05:35:42;24.48;;;12.90;;
69970;SDS011;57301;50.328;8.542;2022-10-14T05:38:24;27.73;;;13.25;;
69970;SDS011;57301;50.328;8.542;2022-10-14T05:40:51;27.25;;;13.95;;
69970;SDS011;57301;50.328;8.542;2022-10-14T05:43:19;25.60;;;14.30;;
69970;SDS011;57301;50.328;8.542;2022-10-14T05:45:46;28.48;;;14.55;;
69970;SDS011;57301;50.328;8.542;2022-10-14T05:48:12;28.83;;;14.18;;
69970;SDS011;57301;50.328;8.542;2022-10-14T05:50:39;27.80;;;13.70;;
69970;SDS011;57301;50.328;8.542;2022-10-14T05:53:07;26.80;;;13.95;;
69970;SDS011;57301;50.328;8.542;2022-10-14T05:55:34;25.30;;;12.90;;
69970;SDS011;57301;50.328;8.542;2022-10-14T05:58:04;23.23;;;12.60;;
69970;SDS011;57301;50.328;8.542;2022-10-14T06:00:30;26.50;;;13.80;;
69970;SDS011;57301;50.328;8.542;2022-10-14T06:02:57;26.67;;;13.43;;
69970;SDS011;57301;50.328;8.542;2022-10-14T06:05:24;22.50;;;13.10;;
69970;SDS011;57301;50.328;8.542;2022-10-14T06:07:50;21.83;;;12.47;;
69970;SDS011;57301;50.328;8.542;2022-10-14T06:10:17;24.15;;;12.27;;
69970;SDS011;57301;50.328;8.542;2022-10-14T06:12:43;23.02;;;12.73;;
69970;SDS011;57301;50.328;8.542;2022-10-14T06:15:10;19.98;;;12.15;;
69970;SDS011;57301;50.328;8.542;2022-10-14T06:17:36;18.92;;;11.52;;
69970;SDS011;57301;50.328;8.542;2022-10-14T06:20:03;23.17;;;11.87;;
69970;SDS011;57301;50.328;8.542;2022-10-14T06:22:30;19.70;;;11.20;;
69970;SDS011;57301;50.328;8.542;2022-10-14T06:24:56;22.00;;;12.13;;
69970;SDS011;57301;50.328;8.542;2022-10-14T06:27:29;18.30;;;10.88;;
69970;SDS011;57301;50.328;8.542;2022-10-14T06:29:55;21.35;;;11.77;;
69970;SDS011;57301;50.328;8.542;2022-10-14T06:32:22;21.20;;;11.60;;
69970;SDS011;57301;50.328;8.542;2022-10-14T06:34:49;21.20;;;11.68;;
69970;SDS011;57301;50.328;8.542;2022-10-14T06:37:16;21.50;;;11.68;;
69970;SDS011;57301;50.328;8.542;2022-10-14T06:39:42;22.65;;;10.98;;
69970;SDS011;57301;50.328;8.542;2022-10-14T06:42:10;18.38;;;11.15;;
69970;SDS011;57301;50.328;8.542;2022-10-14T06:44:38;18.83;;;11.80;;
69970;SDS011;57301;50.328;8.542;2022-10-14T06:47:05;17.23;;;9.60;;
69970;SDS011;57301;50.328;8.542;2022-10-14T06:49:34;15.70;;;8.98;;
69970;SDS011;57301;50.328;8.542;2022-10-14T06:52:01;14.65;;;9.70;;
69970;SDS011;57301;50.328;8.542;2022-10-14T06:54:27;18.85;;;10.38;;
69970;SDS011;57301;50.328;8.542;2022-10-14T06:56:54;12.07;;;7.63;;
69970;SDS011;57301;50.328;8.542;2022-10-14T06:59:20;13.02;;;7.75;;
69970;SDS011;57301;50.328;8.542;2022-10-14T07:01:47;13.07;;;8.30;;
69970;SDS011;57301;50.328;8.542;2022-10-14T07:04:13;12.25;;;7.40;;
69970;SDS011;57301;50.328;8.542;2022-10-14T07:06:40;13.07;;;8.30;;
69970;SDS011;57301;50.328;8.542;2022-10-14T07:09:06;13.27;;;8.47;;
69970;SDS011;57301;50.328;8.542;2022-10-14T07:11:33;13.80;;;8.43;;
69970;SDS011;57301;50.328;8.542;2022-10-14T07:13:59;14.10;;;8.98;;
69970;SDS011;57301;50.328;8.542;2022-10-14T07:16:26;14.05;;;8.52;;
69970;SDS011;57301;50.328;8.542;2022-10-14T07:18:53;13.45;;;8.15;;
69970;SDS011;57301;50.328;8.542;2022-10-14T07:21:20;15.33;;;8.70;;
69970;SDS011;57301;50.328;8.542;2022-10-14T07:23:46;17.02;;;9.18;;
69970;SDS011;57301;50.328;8.542;2022-10-14T07:26:13;16.00;;;9.77;;
69970;SDS011;57301;50.328;8.542;2022-10-14T07:28:39;15.37;;;9.23;;
69970;SDS011;57301;50.328;8.542;2022-10-14T07:31:07;17.48;;;9.52;;
69970;SDS011;57301;50.328;8.542;2022-10-14T07:33:35;15.90;;;10.73;;
69970;SDS011;57301;50.328;8.542;2022-10-14T07:36:09;17.52;;;10.85;;
69970;SDS011;57301;50.328;8.542;2022-10-14T07:38:42;20.95;;;12.68;;
69970;SDS011;57301;50.328;8.542;2022-10-14T07:41:10;21.05;;;12.13;;
69970;SDS011;57301;50.328;8.542;2022-10-14T07:43:45;17.65;;;11.27;;
69970;SDS011;57301;50.328;8.542;2022-10-14T07:46:14;21.43;;;11.67;;
69970;SDS011;57301;50.328;8.542;2022-10-14T07:48:42;22.85;;;14.00;;
69970;SDS011;57301;50.328;8.542;2022-10-14T07:51:22;18.30;;;12.00;;
69970;SDS011;57301;50.328;8.542;2022-10-14T07:53:49;17.42;;;11.02;;
69970;SDS011;57301;50.328;8.542;2022-10-14T07:56:15;16.48;;;10.68;;
69970;SDS011;57301;50.328;8.542;2022-10-14T07:58:42;18.73;;;11.30;;
69970;SDS011;57301;50.328;8.542;2022-10-14T08:01:09;17.42;;;11.30;;
69970;SDS011;57301;50.328;8.542;2022-10-14T08:03:36;15.60;;;10.40;;
69970;SDS011;57301;50.328;8.542;2022-10-14T08:06:03;18.77;;;11.00;;
69970;SDS011;57301;50.328;8.542;2022-10-14T08:08:30;16.15;;;9.90;;
69970;SDS011;57301;50.328;8.542;2022-10-14T08:11:01;13.27;;;9.13;;
69970;SDS011;57301;50.328;8.542;2022-10-14T08:13:32;13.98;;;9.38;;
69970;SDS011;57301;50.328;8.542;2022-10-14T08:16:00;14.80;;;9.63;;
69970;SDS011;57301;50.328;8.542;2022-10-14T08:18:27;14.90;;;9.90;;
69970;SDS011;57301;50.328;8.542;2022-10-14T08:20:54;16.83;;;10.73;;
69970;SDS011;57301;50.328;8.542;2022-10-14T08:23:21;17.97;;;11.27;;
69970;SDS011;57301;50.328;8.542;2022-10-14T08:25:47;17.02;;;10.85;;
69970;SDS011;57301;50.328;8.542;2022-10-14T08:28:14;18.85;;;12.30;;
69970;SDS011;57301;50.328;8.542;2022-10-14T08:30:41;20.60;;;12.38;;
69970;SDS011;57301;50.328;8.542;2022-10-14T08:33:08;21.23;;;12.43;;
69970;SDS011;57301;50.328;8.542;2022-10-14T08:35:34;17.73;;;11.07;;
69970;SDS011;57301;50.328;8.542;2022-10-14T08:38:01;17.80;;;11.48;;
69970;SDS011;57301;50.328;8.542;2022-10-14T08:40:28;16.35;;;10.98;;
69970;SDS011;57301;50.328;8.542;2022-10-14T08:43:00;18.63;;;10.95;;
69970;SDS011;57301;50.328;8.542;2022-10-14T08:48:17;11.77;;;7.90;;
69970;SDS011;57301;50.328;8.542;2022-10-14T08:50:47;13.93;;;8.93;;
69970;SDS011;57301;50.328;8.542;2022-10-14T08:53:23;12.45;;;8.07;;
69970;SDS011;57301;50.328;8.542;2022-10-14T08:55:54;9.95;;;6.82;;
69970;SDS011;57301;50.328;8.542;2022-10-14T08:58:26;8.68;;;5.97;;
69970;SDS011;57301;50.328;8.542;2022-10-14T09:03:55;8.02;;;5.43;;
69970;SDS011;57301;50.328;8.542;2022-10-14T09:06:25;8.57;;;5.78;;
69970;SDS011;57301;50.328;8.542;2022-10-14T09:08:54;10.10;;;6.85;;
69970;SDS011;57301;50.328;8.542;2022-10-14T09:11:25;12.85;;;6.90;;
69970;SDS011;57301;50.328;8.542;2022-10-14T09:13:59;10.93;;;7.17;;
69970;SDS011;57301;50.328;8.542;2022-10-14T09:16:28;9.50;;;6.88;;
69970;SDS011;57301;50.328;8.542;2022-10-14T09:18:59;12.60;;;8.23;;
69970;SDS011;57301;50.328;8.542;2022-10-14T09:21:50;14.10;;;8.55;;
69970;SDS011;57301;50.328;8.542;2022-10-14T09:26:54;15.73;;;9.30;;
69970;SDS011;57301;50.328;8.542;2022-10-14T09:29:24;15.35;;;9.50;;
69970;SDS011;57301;50.328;8.542;2022-10-14T09:32:11;13.55;;;8.70;;
69970;SDS011;57301;50.328;8.542;2022-10-14T09:34:43;13.15;;;8.93;;
69970;SDS011;57301;50.328;8.542;2022-10-14T09:37:25;12.13;;;8.05;;
69970;SDS011;57301;50.328;8.542;2022-10-14T09:40:00;12.50;;;8.23;;
69970;SDS011;57301;50.328;8.542;2022-10-14T09:42:41;13.68;;;8.63;;
69970;SDS011;57301;50.328;8.542;2022-10-14T09:45:17;13.05;;;8.23;;
69970;SDS011;57301;50.328;8.542;2022-10-14T09:47:49;10.65;;;6.95;;
69970;SDS011;57301;50.328;8.542;2022-10-14T09:50:54;12.07;;;7.80;;
69970;SDS011;57301;50.328;8.542;2022-10-14T09:53:17;7.87;;;5.93;;
69970;SDS011;57301;50.328;8.542;2022-10-14T09:55:56;8.13;;;5.97;;
69970;SDS011;57301;50.328;8.542;2022-10-14T09:58:28;8.75;;;6.00;;
69970;SDS011;57301;50.328;8.542;2022-10-14T10:01:01;9.07;;;5.13;;
69970;SDS011;57301;50.328;8.542;2022-10-14T10:03:29;6.57;;;4.82;;
69970;SDS011;57301;50.328;8.542;2022-10-14T10:06:02;6.83;;;5.07;;
69970;SDS011;57301;50.328;8.542;2022-10-14T10:08:37;7.43;;;4.88;;
69970;SDS011;57301;50.328;8.542;2022-10-14T10:11:08;6.38;;;4.70;;
69970;SDS011;57301;50.328;8.542;2022-10-14T10:13:40;8.43;;;4.90;;
69970;SDS011;57301;50.328;8.542;2022-10-14T10:16:23;8.60;;;4.80;;
69970;SDS011;57301;50.328;8.542;2022-10-14T10:18:52;8.03;;;5.60;;
69970;SDS011;57301;50.328;8.542;2022-10-14T10:21:25;9.05;;;5.63;;
69970;SDS011;57301;50.328;8.542;2022-10-14T10:23:56;9.48;;;6.45;;
69970;SDS011;57301;50.328;8.542;2022-10-14T10:26:33;9.73;;;6.70;;
69970;SDS011;57301;50.328;8.542;2022-10-14T10:29:01;12.40;;;6.97;;
69970;SDS011;57301;50.328;8.542;2022-10-14T10:31:33;12.83;;;7.20;;
69970;SDS011;57301;50.328;8.542;2022-10-14T10:36:58;17.63;;;9.70;;
69970;SDS011;57301;50.328;8.542;2022-10-14T10:50:23;24.38;;;14.95;;
69970;SDS011;57301;50.328;8.542;2022-10-14T10:53:10;23.08;;;15.35;;
69970;SDS011;57301;50.328;8.542;2022-10-14T10:56:05;21.35;;;14.02;;
69970;SDS011;57301;50.328;8.542;2022-10-14T10:58:40;24.90;;;14.03;;
69970;SDS011;57301;50.328;8.542;2022-10-14T11:01:16;25.60;;;15.90;;
69970;SDS011;57301;50.328;8.542;2022-10-14T11:12:53;24.83;;;16.90;;
69970;SDS011;57301;50.328;8.542;2022-10-14T11:15:28;20.40;;;12.13;;
69970;SDS011;57301;50.328;8.542;2022-10-14T11:20:24;19.98;;;14.35;;
69970;SDS011;57301;50.328;8.542;2022-10-14T11:26:09;25.27;;;15.00;;
69970;SDS011;57301;50.328;8.542;2022-10-14T11:31:41;20.10;;;13.55;;
69970;SDS011;57301;50.328;8.542;2022-10-14T11:34:23;17.25;;;12.57;;
69970;SDS011;57301;50.328;8.542;2022-10-14T11:37:06;19.25;;;13.00;;
69970;SDS011;57301;50.328;8.542;2022-10-14T11:39:48;16.70;;;11.43;;
69970;SDS011;57301;50.328;8.542;2022-10-14T11:45:00;11.70;;;9.15;;
69970;SDS011;57301;50.328;8.542;2022-10-14T11:47:32;16.75;;;10.57;;
69970;SDS011;57301;50.328;8.542;2022-10-14T11:52:44;15.67;;;9.40;;
69970;SDS011;57301;50.328;8.542;2022-10-14T11:55:18;15.88;;;9.68;;
69970;SDS011;57301;50.328;8.542;2022-10-14T11:57:54;15.68;;;9.70;;
69970;SDS011;57301;50.328;8.542;2022-10-14T12:03:12;12.85;;;9.10;;
69970;SDS011;57301;50.328;8.542;2022-10-14T12:08:48;16.23;;;11.35;;
69970;SDS011;57301;50.328;8.542;2022-10-14T12:11:27;17.17;;;11.10;;
69970;SDS011;57301;50.328;8.542;2022-10-14T12:14:05;14.20;;;10.15;;
69970;SDS011;57301;50.328;8.542;2022-10-14T12:16:41;13.43;;;9.77;;
69970;SDS011;57301;50.328;8.542;2022-10-14T12:19:10;13.87;;;9.93;;
69970;SDS011;57301;50.328;8.542;2022-10-14T12:21:51;10.98;;;7.95;;
69970;SDS011;57301;50.328;8.542;2022-10-14T12:24:28;13.75;;;8.40;;
69970;SDS011;57301;50.328;8.542;2022-10-14T12:27:05;10.05;;;7.18;;
69970;SDS011;57301;50.328;8.542;2022-10-14T12:29:40;8.65;;;6.60;;
69970;SDS011;57301;50.328;8.542;2022-10-14T12:34:47;7.20;;;5.15;;
69970;SDS011;57301;50.328;8.542;2022-10-14T12:42:27;7.53;;;4.50;;
69970;SDS011;57301;50.328;8.542;2022-10-14T12:44:56;5.40;;;3.63;;
69970;SDS011;57301;50.328;8.542;2022-10-14T12:47:27;4.47;;;2.97;;
69970;SDS011;57301;50.328;8.542;2022-10-14T12:50:04;4.60;;;2.60;;
69970;SDS011;57301;50.328;8.542;2022-10-14T12:52:56;4.78;;;3.30;;
69970;SDS011;57301;50.328;8.542;2022-10-14T12:55:25;4.95;;;3.35;;
69970;SDS011;57301;50.328;8.542;2022-10-14T12:57:55;5.20;;;3.30;;
69970;SDS011;57301;50.328;8.542;2022-10-14T13:00:31;5.78;;;3.80;;
69970;SDS011;57301;50.328;8.542;2022-10-14T13:03:02;4.70;;;3.30;;
69970;SDS011;57301;50.328;8.542;2022-10-14T13:05:40;4.55;;;3.08;;
69970;SDS011;57301;50.328;8.542;2022-10-14T13:16:53;5.60;;;3.40;;
69970;SDS011;57301;50.328;8.542;2022-10-14T13:18:59;5.85;;;3.65;;
69970;SDS011;57301;50.328;8.542;2022-10-14T13:21:49;6.45;;;3.55;;
69970;SDS011;57301;50.328;8.542;2022-10-14T13:29:59;4.72;;;3.10;;
69970;SDS011;57301;50.328;8.542;2022-10-14T13:32:35;4.18;;;2.67;;
69970;SDS011;57301;50.328;8.542;2022-10-14T13:37:56;4.50;;;2.70;;
69970;SDS011;57301;50.328;8.542;2022-10-14T13:40:32;5.07;;;3.33;;
69970;SDS011;57301;50.328;8.542;2022-10-14T13:43:15;4.40;;;2.92;;
69970;SDS011;57301;50.328;8.542;2022-10-14T13:48:47;4.50;;;3.15;;
69970;SDS011;57301;50.328;8.542;2022-10-14T13:52:19;5.23;;;3.20;;
69970;SDS011;57301;50.328;8.542;2022-10-14T13:54:19;5.40;;;3.55;;
69970;SDS011;57301;50.328;8.542;2022-10-14T13:57:08;4.63;;;3.50;;
69970;SDS011;57301;50.328;8.542;2022-10-14T13:59:58;4.93;;;2.92;;
69970;SDS011;57301;50.328;8.542;2022-10-14T14:02:45;6.25;;;3.25;;
69970;SDS011;57301;50.328;8.542;2022-10-14T14:05:18;5.40;;;4.20;;
69970;SDS011;57301;50.328;8.542;2022-10-14T14:07:46;5.72;;;4.00;;
69970;SDS011;57301;50.328;8.542;2022-10-14T14:10:34;4.63;;;3.67;;
69970;SDS011;57301;50.328;8.542;2022-10-14T14:13:11;5.65;;;3.70;;
69970;SDS011;57301;50.328;8.542;2022-10-14T14:15:38;5.40;;;4.03;;
69970;SDS011;57301;50.328;8.542;2022-10-14T14:18:21;5.83;;;4.10;;
69970;SDS011;57301;50.328;8.542;2022-10-14T14:21:22;5.53;;;4.30;;
69970;SDS011;57301;50.328;8.542;2022-10-14T14:23:51;5.13;;;3.75;;
69970;SDS011;57301;50.328;8.542;2022-10-14T14:26:27;6.20;;;4.70;;
69970;SDS011;57301;50.328;8.542;2022-10-14T14:28:58;7.15;;;4.70;;
69970;SDS011;57301;50.328;8.542;2022-10-14T14:31:30;8.00;;;5.30;;
69970;SDS011;57301;50.328;8.542;2022-10-14T14:34:18;9.90;;;5.55;;
69970;SDS011;57301;50.328;8.542;2022-10-14T14:36:46;6.55;;;4.55;;
69970;SDS011;57301;50.328;8.542;2022-10-14T14:41:52;7.88;;;4.40;;
69970;SDS011;57301;50.328;8.542;2022-10-14T14:44:20;6.27;;;4.40;;
69970;SDS011;57301;50.328;8.542;2022-10-14T14:46:52;4.57;;;3.70;;
69970;SDS011;57301;50.328;8.542;2022-10-14T14:49:30;5.93;;;4.20;;
69970;SDS011;57301;50.328;8.542;2022-10-14T14:51:58;4.50;;;3.35;;
69970;SDS011;57301;50.328;8.542;2022-10-14T14:54:26;3.72;;;2.80;;
69970;SDS011;57301;50.328;8.542;2022-10-14T14:56:55;3.70;;;2.70;;
69970;SDS011;57301;50.328;8.542;2022-10-14T14:59:30;3.80;;;2.60;;
69970;SDS011;57301;50.328;8.542;2022-10-14T15:01:58;4.05;;;2.90;;
69970;SDS011;57301;50.328;8.542;2022-10-14T15:04:26;3.88;;;3.00;;
69970;SDS011;57301;50.328;8.542;2022-10-14T15:07:06;4.43;;;3.30;;
69970;SDS011;57301;50.328;8.542;2022-10-14T15:09:47;3.90;;;3.00;;
69970;SDS011;57301;50.328;8.542;2022-10-14T15:12:17;4.78;;;3.30;;
69970;SDS011;57301;50.328;8.542;2022-10-14T15:14:50;4.00;;;3.03;;
69970;SDS011;57301;50.328;8.542;2022-10-14T15:19:55;4.22;;;3.00;;
69970;SDS011;57301;50.328;8.542;2022-10-14T15:22:23;4.00;;;2.90;;
69970;SDS011;57301;50.328;8.542;2022-10-14T15:25:12;3.67;;;2.85;;
69970;SDS011;57301;50.328;8.542;2022-10-14T15:30:21;5.22;;;2.97;;
69970;SDS011;57301;50.328;8.542;2022-10-14T15:32:56;4.10;;;3.00;;
69970;SDS011;57301;50.328;8.542;2022-10-14T15:35:27;4.50;;;3.40;;
69970;SDS011;57301;50.328;8.542;2022-10-14T15:37:54;4.95;;;3.13;;
69970;SDS011;57301;50.328;8.542;2022-10-14T15:40:22;9.23;;;5.40;;
69970;SDS011;57301;50.328;8.542;2022-10-14T15:42:52;5.00;;;3.10;;
69970;SDS011;57301;50.328;8.542;2022-10-14T15:45:19;7.88;;;5.72;;
69970;SDS011;57301;50.328;8.542;2022-10-14T15:47:51;9.33;;;6.73;;
69970;SDS011;57301;50.328;8.542;2022-10-14T15:50:24;15.27;;;9.82;;
69970;SDS011;57301;50.328;8.542;2022-10-14T15:52:52;6.15;;;3.28;;
69970;SDS011;57301;50.328;8.542;2022-10-14T15:55:21;4.05;;;2.97;;
69970;SDS011;57301;50.328;8.542;2022-10-14T15:57:49;5.10;;;3.47;;
69970;SDS011;57301;50.328;8.542;2022-10-14T16:00:18;4.43;;;3.33;;
69970;SDS011;57301;50.328;8.542;2022-10-14T16:02:47;5.18;;;3.42;;
69970;SDS011;57301;50.328;8.542;2022-10-14T16:05:16;5.90;;;3.40;;
69970;SDS011;57301;50.328;8.542;2022-10-14T16:07:45;5.55;;;3.75;;
69970;SDS011;57301;50.328;8.542;2022-10-14T16:10:14;4.35;;;3.30;;
69970;SDS011;57301;50.328;8.542;2022-10-14T16:12:42;5.90;;;3.40;;
69970;SDS011;57301;50.328;8.542;2022-10-14T16:18:02;5.78;;;3.80;;
69970;SDS011;57301;50.328;8.542;2022-10-14T16:20:29;7.00;;;4.35;;
69970;SDS011;57301;50.328;8.542;2022-10-14T16:22:56;7.35;;;4.05;;
69970;SDS011;57301;50.328;8.542;2022-10-14T16:25:37;5.67;;;3.93;;
69970;SDS011;57301;50.328;8.542;2022-10-14T16:28:09;6.20;;;3.72;;
69970;SDS011;57301;50.328;8.542;2022-10-14T16:30:37;5.72;;;4.05;;
69970;SDS011;57301;50.328;8.542;2022-10-14T16:33:05;5.60;;;3.67;;
69970;SDS011;57301;50.328;8.542;2022-10-14T16:35:32;6.50;;;3.50;;
69970;SDS011;57301;50.328;8.542;2022-10-14T16:37:58;5.93;;;3.63;;
69970;SDS011;57301;50.328;8.542;2022-10-14T16:40:25;4.97;;;3.72;;
69970;SDS011;57301;50.328;8.542;2022-10-14T16:42:51;14.23;;;9.52;;
69970;SDS011;57301;50.328;8.542;2022-10-14T16:45:18;5.50;;;4.07;;
69970;SDS011;57301;50.328;8.542;2022-10-14T16:47:45;5.43;;;4.00;;
69970;SDS011;57301;50.328;8.542;2022-10-14T16:50:11;5.73;;;4.10;;
69970;SDS011;57301;50.328;8.542;2022-10-14T16:52:38;5.32;;;3.63;;
69970;SDS011;57301;50.328;8.542;2022-10-14T16:55:28;6.40;;;4.00;;